Schnee/Eis Gültig von: 19-01-2020 18:00 bis: 20-01-2020 11:00 Warnung für: Schnee/Eis Gefahrenstufe: Gelb info button
Extrem niedrige Temperatur Gültig von: 19-01-2020 18:00 bis: 20-01-2020 11:00 Warnung für: Extrem niedrige Temperatur Gefahrenstufe: Gelb info button

Besuchen Sie unsere anderen Wetter Stationen:

Template documentation
and downloads

And another site



METAR-Meldungen aus der Umgebung


Warning: A non-numeric value encountered in /is/htdocs/wp10906056_0YHW7Q9XB7/www/weather28/metar/metarDisplay.php on line 166

Warning: A non-numeric value encountered in /is/htdocs/wp10906056_0YHW7Q9XB7/www/weather28/metar/metarDisplay.php on line 166

Warning: A non-numeric value encountered in /is/htdocs/wp10906056_0YHW7Q9XB7/www/weather28/metar/metarDisplay.php on line 166

Warning: A non-numeric value encountered in /is/htdocs/wp10906056_0YHW7Q9XB7/www/weather28/metar/metarDisplay.php on line 166

Warning: A non-numeric value encountered in /is/htdocs/wp10906056_0YHW7Q9XB7/www/weather28/metar/metarDisplay.php on line 166

Warning: A non-numeric value encountered in /is/htdocs/wp10906056_0YHW7Q9XB7/www/weather28/metar/metarDisplay.php on line 166
   
EHVK - Volkel Rnlafb, Netherlands
Entfernung von der Station bis: SW 18 km
Aktualisierung: 19-01-2020 20:25
Klar  
Klar  
   Wind: NW 5.6 km/h
Wind: NW 5.6 km/h
Temperatur: 3°C
Gefühlt: 2°C
Taupunkt: 1°C
Luftfeuchte: 87%
Luftdruck: 1044 hPa
Bewölkt: Klar
Sichtbarkeit: More than 10 km
Bewölkung: Klar
EHVK 191925Z AUTO 31003KT 9999 NCD 03/01 Q1044 BLU
EDLV - Niederrhein, Germany
Entfernung von der Station bis: SO 25 km
Aktualisierung: 19-01-2020 20:20
Klar  
Klar  
   Wind: variiert 3.7 km/h
Wind: variiert 3.7 km/h
Temperatur: 3°C
Taupunkt: 1°C
Luftfeuchte: 87%
Luftdruck: 1044 hPa
Sichtbarkeit: More than 10 km
Bewölkung: Klar
EDLV 191920Z VRB02KT CAVOK 03/01 Q1044
EHDL - Deelen Rnlafb, Netherlands
Entfernung von der Station bis: N 35 km
Aktualisierung: 19-01-2020 20:25
Nebel, Klar  
Nebel, Klar  
   Wind: NNW 5.6 km/h
Wind: NNW 5.6 km/h
Temperatur: 1°C
Gefühlt: -1°C
Taupunkt: 1°C
Luftfeuchte: 100%
Luftdruck: 1044 hPa
Bewölkt: Klar
Sichtbarkeit: 2 km
Bewölkung: Klar
EHDL 191925Z AUTO 34003KT 1800 BR NCD 01/01 Q1044 YLO
EHEH - Eindhoven Rnlafb, Netherlands
Entfernung von der Station bis: SW 48 km
Aktualisierung: 19-01-2020 20:25
Klar  
Klar  
   Wind: NW 7.4 km/h
Wind: NW 7.4 km/h
Temperatur: 1°C
Gefühlt: -1°C
Taupunkt: 0°C
Luftfeuchte: 93%
Luftdruck: 1045 hPa
Bewölkt: Klar
Sichtbarkeit: More than 10 km
Bewölkung: Klar
EHEH 191925Z AUTO 32004KT 280V350 9999 NCD 01/00 Q1045 BLU 31004KT 6000 BR NSC
EHGR - Gilze-Rijen Rnla, Netherlands
Entfernung von der Station bis: WSW 70 km
Aktualisierung: 19-01-2020 20:25
Klar  
Klar  
   Wind: NNW 7.4 km/h
Wind: NNW 7.4 km/h
Temperatur: 3°C
Gefühlt: 1°C
Taupunkt: 1°C
Luftfeuchte: 87%
Luftdruck: 1045 hPa
Bewölkt: Klar
Sichtbarkeit: More than 10 km
Bewölkung: Klar
EHGR 191925Z AUTO 33004KT 280V340 9999 NCD 03/01 Q1045 BLU
EBBL - Kleine-Brogel(Ba, Belgium
Entfernung von der Station bis: SSW 71 km
Aktualisierung: 19-01-2020 20:25
Klar  
Klar  
   Wind: NW 5.6 km/h
Wind: NW 5.6 km/h
Temperatur: 2°C
Gefühlt: 1°C
Taupunkt: 1°C
Luftfeuchte: 93%
Luftdruck: 1045 hPa
Bewölkt: Klar
Sichtbarkeit: More than 10 km
Bewölkung: Klar
EBBL 191925Z AUTO 32003KT 9999 NCD 02/01 Q1045 BLU

Script entwickelt von  Saratoga-weather.org Angepasst für das Template von  Weerstation Leuven

Sie finden unser Wetter-Infos auch auf:

netzwerkwettercom

European Weather Network

WeatherCloud

Weather Underground

AWEKAS

Citizen Weather Observer Program (CWOP)

HAMweather, WeatherForYou, PWS Weather

Von uns verwendete Ausrüstung:

Wetterstation
Davis VP2

Davis VP2